Datos de la estación

Estación Meteorológica de Mancha Real

Provincia: Jaén
Código de Estación: 7
Primer día registrado: 23-08-2000
Último día registrado: 04-03-2021

Datos Localización

Latitud: 37º 54' 59'' N
Longitud: 03º 35' 47'' W
Altitud: 407

Coordenadas UTM

X: 447571
Y: 4196710

Fecha de Medida
04-03-2021
Día Juliano
63
Temp. Máxima (ºC)
18.2
Velocidad Viento Media (m/s)
1.1
Hora Temp. Máxima
14:12
Dirección Viento Media (º)
173.5
Temp. Mínima (ºC)
6.3
Radiación (MJ/m2 d)
16.1
Hora Temp. Mínima
6:30
Precipitación (mm)
0.0
Temp. Media (ºC)
12.1
ETo (mm/dia)
2.3
Humedad Relativa Máxima (%)
94.6
Humedad Relativa Mínima (%)
35.8
Precipitación Acumulada (mm)
186.0
Humedad Relativa Media (%)
59.5
ETo Acumulada (mm)
424.0
Temperatura Máxima Humedad Máxima Dirección del Viento
Temperatura Mínima Humedad Mínima Precipitación
Temperatura Media Humedad Media ETo
HH:MM Temperatura Máxima Radiación Marcar Todas
HH:MM Temperatura Mínima Velocidad del Viento
 
Fecha Día Juliano Temp. Máxima (ºC) Hora Temp Máxima Temp. Mínima (ºC) Hora Temp Mínima Temp. Media (ºC) Humedad Relativa Máxima (%) Humedad Relativa Media (%) Humedad Relativa Mínima (%) Velocidad Viento Media (m/s) Dirección Viento Media (º) Radiación (MJ/m2 d) Precipitación (mm) ETo (mm/dia)
04-03-2021 63 18.2 14:12 6.3 6:30 12.1 94.6 59.5 35.8 1.1 173.5 16.1 0.0 2.3
03-03-2021 62 17.9 14:10 9.3 22:56 13.4 75.8 61.6 42.0 1.0 103.6 9.5 0.0 1.9
02-03-2021 61 18.8 14:58 7.4 5:56 13.5 87.2 60.9 43.4 1.1 94.5 15.0 0.0 2.3
01-03-2021 60 17.5 13:50 9.9 3:10 13.2 77.5 58.6 46.7 2.4 119.4 12.7 0.2 2.6
28-02-2021 59 18.6 13:48 6.1 6:12 11.9 99.8 65.8 39.1 1.9 135.7 16.6 0.0 2.6
27-02-2021 58 15.0 14:08 7.8 6:22 11.2 91.1 67.7 48.6 0.7 125.5 8.2 0.0 1.4
26-02-2021 57 20.6 14:52 7.8 6:54 13.5 83.8 58.3 30.9 1.3 144.7 14.3 0.0 2.6
25-02-2021 56 18.6 14:14 6.9 5:48 12.2 79.1 61.6 44.7 1.2 225.9 13.1 0.0 2.1
24-02-2021 55 20.7 14:42 6.4 7:36 13.1 81.3 54.4 31.6 1.9 121.2 16.4 0.0 3.0
23-02-2021 54 18.0 14:54 2.5 7:02 10.5 92.6 60.8 31.4 1.6 100.9 17.5 0.0 2.5
22-02-2021 53 12.5 15:14 5.4 7:16 8.5 81.7 66.6 46.3 3.3 237.3 15.6 0.0 2.4
21-02-2021 52 14.7 12:24 7.4 20:34 11.0 99.9 69.0 39.6 2.5 241.8 5.1 3.0 1.9
20-02-2021 51 22.7 15:36 4.3 6:52 13.6 99.9 59.8 24.9 1.3 129.4 15.4 0.0 2.7
19-02-2021 50 21.7 14:56 4.6 7:18 12.4 86.3 59.2 27.3 1.5 119.1 16.7 0.0 2.8
18-02-2021 49 18.9 15:16 5.7 6:50 11.9 85.6 60.4 44.7 1.4 152.1 16.2 0.0 2.3
17-02-2021 48 21.7 16:36 6.0 2:58 12.7 75.7 51.5 32.1 1.4 119.8 15.7 0.0 2.7
16-02-2021 47 19.8 16:08 5.0 6:56 11.5 78.5 59.0 35.1 1.3 100.9 16.5 0.0 2.4
15-02-2021 46 19.0 14:50 5.2 6:10 11.7 86.8 63.3 41.0 1.3 109.0 16.0 0.0 2.2
14-02-2021 45 20.5 15:02 4.8 7:08 11.9 88.8 62.1 32.3 1.2 95.3 15.8 0.0 2.3
13-02-2021 44 17.7 17:22 5.3 5:18 10.7 96.0 69.4 44.0 1.1 130.1 14.7 0.0 1.8
12-02-2021 43 16.4 15:10 9.9 23:12 12.8 99.9 76.0 50.8 2.9 249.5 12.8 0.8 2.1
11-02-2021 42 17.6 15:12 11.3 7:58 13.7 99.9 88.5 67.3 1.4 265.3 6.1 1.2 1.3
10-02-2021 41 13.5 15:56 10.3 6:52 12.0 99.9 92.2 74.5 4.4 257.1 2.6 8.8 1.1
09-02-2021 40 15.0 14:16 8.5 2:14 11.1 98.5 76.4 55.2 5.4 242.5 5.6 3.2 2.1
08-02-2021 39 12.9 14:08 8.5 1:36 10.5 93.3 73.8 61.1 5.2 240.5 7.2 2.6 1.8
07-02-2021 38 12.4 14:56 7.5 8:06 9.0 90.5 76.0 61.6 4.4 253.4 6.3 0.0 1.7
06-02-2021 37 13.2 13:48 7.9 1:22 9.7 98.4 83.2 57.9 2.4 265.2 5.8 1.2 1.4
05-02-2021 36 17.0 12:58 8.6 4:18 11.8 96.1 74.8 50.7 2.1 217.5 11.5 0.8 1.9
04-02-2021 35 17.2 13:50 7.3 4:16 11.2 99.9 81.0 53.8 1.5 99.7 11.0 0.0 1.6
03-02-2021 34 16.6 14:24 9.5 7:34 11.7 87.1 75.5 55.5 1.0 197.2 10.7 0.0 1.4
02-02-2021 33 15.3 12:52 8.9 2:36 11.5 94.6 81.4 63.0 0.9 240.7 9.5 0.0 1.2
01-02-2021 32 16.1 14:48 11.2 7:44 13.0 92.7 76.2 59.5 4.2 249.2 11.8 0.2 2.1
31-01-2021 31 13.9 16:44 8.6 4:10 11.0 89.9 74.9 65.5 5.4 247.3 3.8 0.0 1.7
30-01-2021 30 14.8 14:16 9.9 23:00 11.8 99.9 76.3 53.9 4.4 250.4 7.2 0.4 1.9
29-01-2021 29 19.8 14:04 7.2 5:56 12.3 99.9 74.5 48.2 1.8 265.6 13.2 0.0 1.9
28-01-2021 28 21.5 15:04 6.1 7:28 13.5 97.4 73.7 44.0 1.2 107.6 12.6 0.0 1.8
27-01-2021 27 18.8 15:52 10.5 23:14 14.0 99.9 88.8 63.9 0.9 243.0 6.7 0.2 1.1
26-01-2021 26 16.4 14:32 11.5 7:38 13.2 97.7 87.7 70.1 2.4 255.2 6.8 0.2 1.3
25-01-2021 25 14.4 12:14 8.9 2:20 12.1 95.4 82.8 72.6 3.9 246.9 4.4 0.6 1.3
24-01-2021 24 15.0 14:32 10.1 --:-- 12.4 97.0 73.6 53.2 4.8 248.7 10.2 2.6 2.1
23-01-2021 23 12.8 13:08 5.6 6:26 9.8 93.1 76.2 57.9 4.8 247.2 8.4 0.0 1.8
22-01-2021 22 14.4 3:46 7.6 --:-- 11.1 85.2 72.0 59.5 6.1 244.4 4.9 2.2 2.1
21-01-2021 21 13.9 14:44 9.2 1:26 11.2 97.2 80.5 63.9 4.6 247.0 5.7 2.2 1.5
20-01-2021 20 13.6 14:54 1.4 3:18 7.1 92.8 76.8 57.0 3.1 173.1 2.7 6.0 1.5
19-01-2021 19 14.5 13:34 1.8 5:28 6.9 79.6 59.1 39.5 1.3 120.3 11.8 0.0 1.4
18-01-2021 18 18.1 15:34 1.7 7:30 8.4 64.0 44.4 19.6 1.4 125.7 12.6 0.0 2.0
17-01-2021 17 17.9 15:52 -0.2 4:52 7.1 74.5 51.2 24.2 1.2 103.8 12.3 0.0 1.8
16-01-2021 16 14.7 14:22 -1.8 6:00 5.7 88.5 58.0 26.8 0.7 106.5 12.0 0.0 1.1
15-01-2021 15 13.4 15:04 -1.3 7:20 5.1 86.4 65.5 40.2 0.9 95.1 11.9 0.0 1.1
14-01-2021 14 11.5 15:52 -1.2 7:34 4.6 85.0 65.3 41.6 1.0 198.1 11.6 0.0 1.0
13-01-2021 13 13.2 15:44 -3.1 7:40 4.4 86.6 61.7 32.2 1.0 111.8 11.8 0.0 1.2
12-01-2021 12 9.0 15:46 -3.1 7:52 2.4 92.9 73.0 41.2 0.9 119.6 11.5 0.0 0.9
11-01-2021 11 8.6 14:10 -1.0 7:30 2.9 91.4 76.3 54.4 1.1 73.3 11.2 0.2 0.8
10-01-2021 10 9.6 13:58 0.0 7:00 4.1 98.6 78.7 46.8 0.8 98.5 9.8 1.6 0.8
09-01-2021 9 7.8 15:00 0.6 21:44 4.8 99.9 85.0 54.4 2.3 291.1 6.0 7.8 1.0
08-01-2021 8 9.7 19:34 3.9 2:14 6.3 99.9 87.1 61.7 1.8 113.3 2.5 13.8 0.9
07-01-2021 7 5.2 3:26 3.7 20:26 4.3 99.9 94.4 75.3 0.9 66.3 1.7 20.2 0.5
06-01-2021 6 9.4 14:38 1.5 5:58 4.9 88.7 71.1 51.6 1.0 273.4 5.5 2.8 0.8
05-01-2021 5 8.6 14:22 -0.8 7:50 3.5 99.8 78.7 54.4 0.8 89.6 8.5 0.2 0.7
04-01-2021 4 6.6 16:02 -1.6 7:22 2.6 93.5 75.7 56.1 1.2 225.0 7.9 0.4 0.7
03-01-2021 3 8.5 15:10 -2.8 6:24 2.8 91.0 63.4 35.9 1.5 218.3 11.0 0.0 1.1
02-01-2021 2 7.6 14:36 -0.1 6:32 3.3 96.9 76.7 55.5 1.9 251.6 10.6 0.0 0.9
01-01-2021 1 7.4 00:14 3.5 --:-- 5.7 90.4 74.5 60.1 4.4 246.5 4.7 1.0 1.3
31-12-2020 366 9.0 15:06 -2.8 7:38 3.8 90.0 73.1 54.6 1.6 218.6 10.7 0.2 0.9
30-12-2020 365 8.2 15:30 0.0 23:56 3.7 90.0 76.6 57.0 1.3 195.2 10.5 0.0 0.8
29-12-2020 364 9.3 15:18 3.6 2:46 5.9 90.5 76.3 65.7 3.3 244.8 4.2 2.4 1.1
28-12-2020 363 10.9 15:54 3.3 00:18 7.8 97.8 72.9 57.3 5.1 244.0 4.8 4.4 1.5
27-12-2020 362 9.7 15:24 -2.6 5:58 3.3 80.5 63.8 46.9 1.6 190.5 11.1 0.0 1.1
26-12-2020 361 9.2 15:40 -0.9 6:08 3.6 77.0 55.1 38.9 1.2 103.1 11.1 0.0 1.0
25-12-2020 360 12.5 12:46 2.5 23:56 7.8 92.7 64.6 38.3 1.3 66.1 8.5 0.0 1.1
24-12-2020 359 16.0 15:52 7.2 3:16 10.4 92.0 76.0 50.5 1.0 118.5 10.1 0.0 1.0
23-12-2020 358 15.8 13:58 6.2 7:00 10.6 89.5 73.2 52.4 1.3 144.3 10.2 0.0 1.1
22-12-2020 357 18.9 15:38 6.2 00:46 11.4 88.2 67.3 45.5 1.4 120.3 10.2 0.0 1.4
21-12-2020 356 15.7 15:30 4.3 6:18 9.3 96.3 78.3 54.7 1.0 110.0 9.4 0.2 0.9
20-12-2020 355 14.9 14:16 6.4 --:-- 10.3 99.9 87.7 59.2 1.0 125.1 5.8 1.2 0.9
19-12-2020 354 12.0 12:44 5.8 8:40 8.7 99.9 94.9 71.2 0.8 96.5 4.9 2.4 0.7
18-12-2020 353 13.8 14:16 5.2 7:48 9.2 99.9 89.6 64.4 0.8 320.2 9.7 0.2 0.7
17-12-2020 352 14.9 13:30 6.2 6:50 10.5 94.3 79.6 61.3 1.0 154.9 7.3 0.0 0.9
16-12-2020 351 14.9 15:16 4.0 4:10 9.2 92.0 73.2 49.8 1.2 119.3 8.8 0.0 1.1
15-12-2020 350 14.1 14:10 6.4 23:50 10.9 99.9 85.3 60.7 2.0 251.5 6.4 0.8 1.1
14-12-2020 349 15.8 13:12 8.5 6:10 11.4 99.9 89.1 70.1 1.1 192.3 5.5 1.2 0.8
13-12-2020 348 16.5 13:36 7.6 8:14 11.4 92.9 78.5 54.2 0.9 112.3 9.3 0.0 1.0
12-12-2020 347 17.1 12:58 9.9 23:56 14.0 98.6 79.2 59.6 4.3 237.0 7.2 0.8 1.7
11-12-2020 346 16.2 12:46 13.7 3:08 14.6 96.5 86.2 79.8 6.0 243.2 2.3 0.2 1.2
10-12-2020 345 14.0 23:42 5.3 1:46 10.7 99.9 92.0 80.5 3.8 246.6 2.0 0.4 0.9
09-12-2020 344 10.3 14:18 3.2 7:44 6.5 85.5 74.3 57.8 1.7 241.7 10.6 0.0 1.0
08-12-2020 343 12.6 14:26 6.0 23:52 9.5 89.9 73.3 49.1 5.7 248.3 5.7 3.2 2.1
07-12-2020 342 12.4 13:40 7.2 4:24 10.0 94.2 77.6 66.1 5.3 246.8 3.8 0.6 1.4
06-12-2020 341 7.8 23:48 3.9 7:32 6.1 80.9 72.5 63.2 3.8 244.2 5.6 0.0 1.3
05-12-2020 340 6.4 20:24 1.9 4:56 4.7 91.6 74.9 61.1 3.6 246.4 4.0 1.4 1.1
04-12-2020 339 10.3 6:06 4.4 23:54 7.5 94.1 79.7 62.5 5.1 243.3 2.6 7.4 1.4
03-12-2020 338 12.7 15:36 0.3 6:38 6.9 84.2 66.4 45.5 1.2 239.9 11.3 0.0 1.1
02-12-2020 337 15.5 14:00 1.7 8:00 8.7 99.9 72.6 47.9 0.8 88.6 10.1 0.0 0.9
01-12-2020 336 16.4 15:18 5.6 7:06 10.7 91.6 74.2 52.6 1.1 136.5 11.0 0.0 1.1
30-11-2020 335 17.7 14:08 7.1 5:14 11.6 84.6 69.5 50.9 1.3 138.2 9.0 0.0 1.3
29-11-2020 334 16.0 15:36 7.3 1:28 10.7 88.3 75.9 57.7 1.2 101.3 7.1 0.0 1.1
28-11-2020 333 11.8 13:42 6.4 5:08 8.8 99.9 88.7 71.2 0.7 138.5 3.7 0.2 0.7
27-11-2020 332 8.8 15:46 7.4 7:46 7.9 99.9 98.9 91.6 1.3 244.4 1.8 16.0 0.5
26-11-2020 331 13.3 8:32 7.7 19:26 9.1 99.9 93.6 58.8 1.5 241.5 1.0 5.6 1.0
25-11-2020 330 18.4 13:28 6.5 3:12 10.5 99.8 71.9 41.7 1.3 95.6 8.6 1.0 1.5
24-11-2020 329 16.1 14:54 4.0 5:26 9.2 80.8 62.3 38.1 1.3 114.9 11.6 0.0 1.5
23-11-2020 328 17.4 14:56 4.4 6:46 9.7 75.9 58.5 33.5 1.6 135.0 12.4 0.0 1.8
22-11-2020 327 17.6 13:32 5.7 3:44 10.4 84.6 64.0 37.1 1.5 123.2 12.5 0.0 1.7
21-11-2020 326 19.8 16:02 6.6 2:10 12.2 85.3 64.2 39.5 1.1 109.4 12.1 0.0 1.6
20-11-2020 325 21.4 14:10 7.5 6:42 13.7 86.6 58.4 33.1 1.2 97.0 12.6 0.0 1.8
19-11-2020 324 24.2 15:52 8.8 7:48 15.8 80.7 58.0 34.5 1.1 106.5 12.1 0.0 1.9
18-11-2020 323 24.1 16:02 9.5 5:40 15.2 79.9 61.6 38.8 1.1 114.7 12.3 0.0 1.9
17-11-2020 322 21.6 14:36 10.9 7:26 15.3 96.1 72.8 45.5 1.2 117.5 12.4 0.0 1.7
16-11-2020 321 20.9 15:50 11.5 7:42 15.6 92.6 79.3 62.4 1.1 175.0 11.2 0.0 1.4
15-11-2020 320 21.8 14:26 11.3 7:16 15.8 99.9 81.4 52.8 1.1 108.7 10.2 0.2 1.5
14-11-2020 319 16.0 13:46 12.1 5:54 13.8 99.9 85.4 69.9 0.7 117.0 3.4 1.8 0.8
13-11-2020 318 20.6 14:08 8.2 6:46 13.9 88.3 67.3 43.5 0.9 117.7 10.4 0.0 1.5
12-11-2020 317 19.6 12:52 8.3 3:40 13.2 84.2 66.0 40.1 1.3 120.2 9.7 0.0 1.8
11-11-2020 316 20.7 13:06 8.6 7:26 13.8 88.6 66.4 38.0 1.1 108.3 13.2 0.0 1.8
10-11-2020 315 20.3 15:32 8.4 6:00 13.3 99.2 75.9 46.7 1.0 111.4 13.0 0.0 1.6
09-11-2020 314 17.4 16:06 8.7 3:54 12.6 93.0 77.7 62.9 1.0 136.9 8.3 0.2 1.2
08-11-2020 313 19.6 14:30 8.0 6:52 13.1 94.2 73.5 48.3 1.3 110.5 13.2 0.0 1.7
07-11-2020 312 18.0 14:26 10.9 4:48 13.8 99.9 80.7 56.8 2.4 177.4 10.7 8.8 1.8
06-11-2020 311 24.7 12:24 13.5 23:54 19.1 99.6 53.7 34.9 2.4 116.6 5.1 8.8 2.6
05-11-2020 310 19.8 15:32 12.7 3:12 16.4 93.1 64.8 49.0 2.5 99.3 4.1 9.6 2.0
04-11-2020 309 16.7 22:46 11.7 8:52 13.7 90.1 77.9 58.7 1.4 134.3 4.0 7.0 1.3
03-11-2020 308 24.3 13:50 8.8 6:56 16.9 75.2 51.4 33.7 1.2 125.6 13.2 0.0 2.3
02-11-2020 307 26.1 13:48 10.9 6:40 17.7 65.9 48.2 29.2 1.5 119.6 14.6 0.0 2.9
01-11-2020 306 26.1 14:18 10.9 6:10 17.4 72.4 50.7 30.8 1.3 126.4 14.6 0.0 2.7
31-10-2020 305 26.0 14:56 12.7 7:08 18.2 63.1 48.9 27.7 1.5 126.3 14.2 0.0 3.0
30-10-2020 304 27.2 14:50 11.7 6:46 18.2 74.3 52.6 22.5 1.4 113.3 15.0 0.0 3.1
29-10-2020 303 25.8 14:34 8.5 6:34 16.4 81.9 57.8 31.5 1.3 97.3 15.2 0.0 2.7
28-10-2020 302 21.0 14:52 4.7 6:10 12.6 86.8 63.2 37.1 1.0 118.2 14.5 0.0 2.0
27-10-2020 301 17.2 14:28 4.3 6:52 10.6 86.6 64.4 40.5 1.2 147.9 15.4 0.0 1.9
26-10-2020 300 15.9 13:34 8.3 23:58 11.9 95.6 68.0 45.1 3.3 241.0 12.6 1.0 2.3
25-10-2020 299 18.2 14:38 8.0 7:12 13.5 88.3 68.3 52.4 2.9 227.3 13.4 0.2 2.4
24-10-2020 298 19.2 14:00 8.5 6:58 13.4 92.0 70.3 45.5 1.5 169.1 15.6 0.0 2.2
23-10-2020 297 18.4 14:28 10.7 23:58 14.2 99.9 78.3 50.5 1.6 258.1 12.6 0.4 2.0
22-10-2020 296 16.1 00:14 12.5 4:54 14.4 99.9 91.2 70.4 1.0 136.6 3.1 5.8 1.0
21-10-2020 295 20.7 11:50 14.2 2:46 17.0 92.1 73.5 49.8 1.3 184.2 6.5 0.0 1.7
20-10-2020 294 29.9 12:42 15.1 23:30 22.4 91.1 34.5 18.2 2.9 194.3 7.6 3.0 4.6
19-10-2020 293 29.6 13:42 11.6 6:30 20.2 46.2 30.2 16.3 1.4 102.7 15.7 0.0 3.7
18-10-2020 292 26.5 15:00 8.3 6:20 16.6 58.2 38.1 17.2 1.6 111.1 17.2 0.0 3.7
17-10-2020 291 21.6 14:40 6.7 6:48 13.9 60.6 43.3 25.7 1.6 112.2 17.1 0.0 3.1
16-10-2020 290 21.1 15:00 5.3 6:44 13.6 68.8 41.9 23.2 1.6 139.4 17.6 0.0 3.0
15-10-2020 289 21.2 14:16 6.8 6:26 13.8 69.1 45.1 23.7 1.4 138.4 17.7 0.0 2.9
14-10-2020 288 20.6 15:18 11.1 6:08 15.9 61.8 47.3 37.1 2.1 247.4 17.2 0.0 3.3
13-10-2020 287 25.3 14:40 6.8 5:56 16.5 67.0 42.0 27.1 1.2 189.9 18.0 0.0 3.1
12-10-2020 286 21.6 15:08 9.6 6:46 15.0 52.9 38.6 22.5 1.1 82.3 18.7 0.0 2.9
11-10-2020 285 25.1 14:48 13.1 6:24 19.0 72.8 38.7 12.0 1.6 41.0 18.2 0.0 3.7
10-10-2020 284 29.5 14:58 14.5 3:20 22.0 64.6 41.9 23.1 1.6 195.5 17.6 0.0 4.0
09-10-2020 283 29.4 15:02 14.6 4:10 21.3 66.0 44.8 24.6 1.4 129.6 16.5 0.0 3.8
08-10-2020 282 30.2 15:16 14.5 6:58 21.9 59.7 39.7 20.5 1.4 112.9 18.0 0.0 4.0
07-10-2020 281 30.4 14:48 10.9 5:32 20.5 76.1 45.6 16.3 1.4 112.4 19.2 0.0 4.1
06-10-2020 280 25.8 15:24 9.6 5:52 17.2 74.3 51.1 27.6 1.2 105.8 18.6 0.0 3.3
05-10-2020 279 20.7 17:00 10.7 5:46 15.2 74.9 56.7 36.9 1.8 241.2 18.0 0.0 3.2
04-10-2020 278 20.7 13:32 7.2 4:56 14.6 82.2 58.7 38.9 1.9 237.7 16.4 0.0 3.0
03-10-2020 277 17.6 15:50 8.7 5:50 12.6 72.2 58.1 41.7 3.0 232.9 17.0 0.0 3.3
02-10-2020 276 20.9 12:44 10.8 23:58 15.7 99.2 68.2 56.6 6.0 249.1 8.7 4.6 3.0
01-10-2020 275 26.5 14:54 12.3 6:54 20.3 77.4 49.8 21.4 2.7 236.2 18.9 0.0 4.8
30-09-2020 274 25.8 16:44 13.9 6:44 20.1 56.2 41.7 30.1 1.3 161.9 12.3 0.0 3.2
29-09-2020 273 30.6 15:22 13.6 6:42 21.7 49.5 32.1 17.7 1.3 133.0 20.2 0.0 4.3
28-09-2020 272 28.2 15:22 10.7 6:16 19.6 66.7 37.0 13.2 1.3 109.5 20.7 0.0 4.1
27-09-2020 271 25.7 16:48 13.7 6:24 19.1 61.0 45.0 30.2 1.6 222.6 19.7 0.0 4.0
26-09-2020 270 24.5 14:52 12.3 5:42 18.4 47.0 35.7 23.9 1.5 163.6 20.0 0.0 4.0
25-09-2020 269 24.5 14:54 14.0 23:58 19.2 75.1 46.8 23.3 3.3 255.8 19.6 0.0 5.1
24-09-2020 268 27.5 12:44 17.2 7:06 20.9 76.5 63.4 38.6 2.0 256.4 12.4 0.0 3.8
23-09-2020 267 27.5 14:36 16.0 6:40 21.7 68.7 52.1 36.8 2.3 241.5 19.3 0.0 4.6
22-09-2020 266 29.1 14:44 14.5 6:42 22.3 65.8 44.3 26.3 1.7 238.3 19.7 0.0 4.5
21-09-2020 265 28.3 15:26 15.4 5:58 21.3 79.0 53.5 29.7 1.4 217.7 18.8 0.0 4.0
20-09-2020 264 25.5 14:34 13.8 6:06 19.7 89.8 62.9 38.4 1.6 232.8 19.2 0.0 3.8
19-09-2020 263 22.1 13:14 16.4 21:06 18.5 85.7 71.3 58.4 1.4 253.3 10.0 0.2 2.3
18-09-2020 262 28.8 12:48 18.5 23:48 23.2 68.7 50.7 34.9 3.9 211.5 14.3 0.0 5.6
17-09-2020 261 31.2 15:00 20.8 00:04 24.8 64.9 48.3 30.0 2.2 199.5 8.6 0.2 4.4
16-09-2020 260 32.7 12:42 18.6 5:48 25.5 65.3 45.2 27.4 1.5 357.0 16.8 0.0 4.6
15-09-2020 259 31.6 15:04 19.1 5:28 24.8 74.4 53.7 36.0 1.6 232.2 19.8 0.0 4.7
14-09-2020 258 32.0 13:44 19.8 4:00 25.5 57.6 40.0 21.8 1.4 241.2 14.1 0.0 4.3
13-09-2020 257 33.6 15:38 19.9 3:08 26.9 50.0 33.1 17.8 1.8 129.2 15.1 0.0 5.2
12-09-2020 256 36.8 14:34 19.6 4:38 27.9 45.7 29.1 14.2 1.5 79.0 22.2 0.0 5.9
11-09-2020 255 34.2 15:12 18.7 5:36 26.1 59.0 35.1 16.9 1.5 111.5 22.1 0.0 5.5
10-09-2020 254 33.0 15:18 17.6 6:34 25.0 55.4 36.2 17.3 1.2 113.9 23.0 0.0 5.1
09-09-2020 253 31.3 15:02 16.8 6:06 24.0 63.7 43.1 17.7 1.4 133.5 23.1 0.0 5.1
08-09-2020 252 31.4 15:32 18.3 6:10 24.3 64.4 41.6 26.0 1.0 88.9 22.5 0.0 4.6
07-09-2020 251 34.0 16:26 18.8 6:12 25.9 64.8 38.3 19.0 1.3 354.3 22.5 0.0 5.3
06-09-2020 250 35.2 14:24 19.0 5:26 27.2 61.6 37.6 15.1 1.2 207.6 23.9 0.0 5.4
05-09-2020 249 35.1 15:20 17.8 5:54 26.3 61.9 38.9 18.1 1.2 99.3 24.2 0.0 5.5
04-09-2020 248 34.2 16:10 18.9 5:44 26.4 55.6 33.9 16.6 1.2 127.2 24.7 0.0 5.5
03-09-2020 247 34.7 15:06 17.1 6:14 25.9 60.1 38.6 14.2 1.3 88.6 24.5 0.0 5.7
02-09-2020 246 33.0 15:42 16.0 6:14 24.9 55.1 32.0 12.3 1.2 46.5 24.6 0.0 5.3
01-09-2020 245 28.8 16:34 15.6 5:22 22.2 62.9 43.1 27.0 1.4 165.1 15.2 0.0 4.1
31-08-2020 244 31.2 16:10 14.9 5:30 23.3 64.9 34.1 17.7 1.5 100.0 25.4 0.0 5.6
30-08-2020 243 28.6 15:14 14.5 6:02 21.7 50.8 28.7 13.4 1.3 57.8 24.8 0.0 5.1
29-08-2020 242 28.3 15:58 17.0 6:22 22.5 45.3 29.1 18.0 2.5 283.2 26.3 0.0 6.6
28-08-2020 241 34.7 14:36 23.0 7:00 28.4 48.2 32.7 21.1 3.0 261.3 23.3 0.0 7.9
27-08-2020 240 39.4 14:40 23.7 5:50 31.2 38.9 24.2 9.8 2.0 197.0 24.6 0.0 7.7
26-08-2020 239 39.0 14:48 22.7 5:56 30.9 51.2 29.6 12.6 1.5 217.1 25.7 0.0 6.8
25-08-2020 238 37.3 16:14 22.0 5:32 29.6 64.8 38.1 19.9 1.5 346.6 25.5 0.0 6.5
24-08-2020 237 36.3 15:10 20.9 6:14 28.7 42.6 26.6 13.2 1.4 238.7 26.0 0.0 6.4
23-08-2020 236 37.7 14:58 21.3 5:04 29.8 45.9 24.1 8.7 1.9 223.6 26.5 0.0 7.4
22-08-2020 235 36.5 15:20 19.5 5:54 28.9 54.9 35.0 19.0 1.6 237.0 26.3 0.0 6.6
21-08-2020 234 36.7 14:54 19.0 5:56 28.1 33.7 20.3 8.1 1.9 248.5 27.2 0.0 7.4
20-08-2020 233 37.1 15:42 19.6 6:04 29.4 43.6 23.2 14.0 1.7 276.2 26.0 0.0 6.9
19-08-2020 232 37.3 15:12 21.1 5:50 29.3 48.9 29.4 16.7 2.0 209.2 26.4 0.0 7.5
18-08-2020 231 35.5 16:40 17.6 5:54 27.3 62.1 33.1 12.0 1.3 188.2 26.2 0.0 6.1
17-08-2020 230 32.7 16:42 18.2 4:16 25.3 56.6 35.6 16.6 1.8 253.3 27.3 0.0 6.6
16-08-2020 229 31.0 15:50 17.6 6:00 24.2 63.4 36.6 16.2 2.3 251.6 27.5 0.0 6.9
15-08-2020 228 32.3 15:22 18.7 6:00 25.3 53.4 34.0 15.8 2.4 270.8 27.6 0.0 7.4
14-08-2020 227 33.7 16:10 18.6 5:52 26.3 69.5 41.6 19.1 1.8 275.1 27.2 0.0 6.7
13-08-2020 226 32.9 15:54 17.6 5:28 25.1 82.8 48.9 20.2 1.5 259.9 27.4 0.0 6.2
12-08-2020 225 29.2 16:10 17.4 5:20 22.7 91.9 66.5 41.8 2.1 261.7 25.4 0.0 5.5
11-08-2020 224 34.3 13:34 17.9 21:10 25.6 98.4 52.7 25.2 2.0 326.2 17.3 17.0 5.5
10-08-2020 223 34.9 16:40 23.5 5:50 29.1 71.0 37.9 21.0 1.6 161.1 14.3 1.0 5.1
09-08-2020 222 40.3 15:06 23.6 6:06 32.2 40.1 23.8 12.1 1.4 334.3 26.7 0.0 7.1
08-08-2020 221 42.0 16:00 22.9 6:16 32.2 45.5 26.4 11.0 1.3 123.5 25.0 0.0 7.0
07-08-2020 220 40.6 15:16 23.3 5:30 31.7 44.2 27.6 14.5 1.8 259.2 26.7 0.0 8.0
06-08-2020 219 41.4 15:26 22.9 5:16 32.6 47.2 27.0 13.6 1.2 335.0 27.0 0.0 6.9
05-08-2020 218 39.0 16:00 23.5 5:26 31.0 52.4 34.6 18.6 1.2 344.9 27.3 0.0 6.8
04-08-2020 217 37.5 15:24 21.1 5:22 29.5 47.9 31.0 15.8 1.4 260.4 27.8 0.0 7.0
03-08-2020 216 35.9 16:16 20.4 5:54 28.3 55.7 31.5 17.8 1.6 298.0 25.7 0.0 6.8
02-08-2020 215 40.0 15:50 24.1 5:40 31.8 34.3 17.7 7.4 2.6 245.9 27.4 0.0 9.5
01-08-2020 214 41.3 15:32 24.3 6:02 33.1 48.4 23.3 8.3 1.8 236.0 26.4 0.0 8.0
31-07-2020 213 41.0 14:30 24.5 5:52 32.5 61.2 33.3 9.9 1.6 243.7 26.1 0.0 7.6
30-07-2020 212 40.3 16:18 23.7 5:30 32.5 51.6 32.3 17.3 2.0 272.5 27.3 0.0 8.2
29-07-2020 211 40.6 15:58 23.3 5:22 32.4 41.8 26.6 14.7 1.4 345.6 28.1 0.0 7.4
28-07-2020 210 39.7 15:40 23.4 5:44 31.5 56.7 30.3 10.3 1.7 285.7 28.7 0.0 8.0
27-07-2020 209 40.6 15:18 24.5 4:32 32.5 45.5 29.8 16.0 2.4 268.1 27.6 0.0 9.1
26-07-2020 208 42.5 15:52 24.5 5:20 33.8 39.9 23.8 13.0 1.4 82.3 28.3 0.0 7.7
25-07-2020 207 39.7 14:16 24.0 5:34 33.0 43.2 23.9 13.9 1.8 284.2 28.6 0.0 8.0
24-07-2020 206 39.0 16:50 24.3 5:24 32.2 47.7 28.5 15.5 2.0 280.3 28.4 0.0 8.2
23-07-2020 205 37.8 16:22 23.1 5:00 30.7 59.8 34.7 17.7 1.4 248.6 28.3 0.0 7.2
22-07-2020 204 34.8 16:32 22.1 5:24 28.3 68.6 42.6 18.5 2.2 255.8 28.5 0.0 7.7
21-07-2020 203 40.1 13:58 24.8 5:12 31.9 54.7 28.3 10.1 1.9 163.4 22.4 0.0 7.7
20-07-2020 202 40.0 14:56 23.2 5:32 31.7 48.7 28.5 10.0 1.4 88.0 28.7 0.0 7.5
19-07-2020 201 38.6 15:36 24.0 6:14 30.7 57.3 35.4 18.6 2.3 277.3 29.2 0.0 8.8
18-07-2020 200 39.4 15:46 23.1 4:52 31.1 50.6 32.7 14.2 2.2 266.1 29.0 0.0 8.8
17-07-2020 199 39.2 15:18 21.9 5:44 31.2 49.6 28.4 16.3 1.8 266.5 28.9 0.0 8.1
16-07-2020 198 39.0 16:38 22.1 5:06 31.1 62.1 33.4 14.0 1.1 64.0 29.2 0.0 7.0
15-07-2020 197 37.2 15:48 20.3 5:30 29.3 72.1 39.9 19.1 1.2 62.9 28.9 0.2 6.9
14-07-2020 196 34.7 14:16 21.5 8:14 27.3 83.4 47.7 29.6 1.3 44.3 19.5 0.6 5.3
13-07-2020 195 36.8 15:10 22.1 5:32 29.6 67.6 37.7 17.6 1.3 328.2 28.4 0.0 7.0
12-07-2020 194 37.6 15:10 23.7 5:46 30.6 52.8 33.8 20.9 1.8 306.6 26.7 0.0 7.6
11-07-2020 193 40.8 16:02 23.2 3:54 31.9 46.1 28.9 12.3 1.2 67.5 27.5 0.0 7.2
10-07-2020 192 37.0 16:54 19.8 4:44 28.8 61.5 32.5 11.8 1.2 310.5 29.2 0.0 6.9
09-07-2020 191 35.6 14:58 19.6 5:16 27.7 57.9 32.2 18.3 1.8 266.1 29.4 0.0 7.6
08-07-2020 190 39.4 10:12 24.3 4:36 31.9 37.5 23.1 13.6 2.9 261.4 24.6 0.0 9.5
07-07-2020 189 40.8 15:58 23.7 5:30 33.0 44.2 23.0 10.5 1.8 259.5 28.8 0.0 8.4
06-07-2020 188 39.8 16:18 21.9 4:50 31.5 41.4 24.3 11.4 1.4 281.5 29.3 0.0 7.6
05-07-2020 187 38.6 16:02 21.4 5:16 30.4 46.1 28.7 12.9 1.9 267.6 29.4 0.0 8.3
04-07-2020 186 37.6 16:10 19.8 4:14 28.9 49.2 26.1 13.5 1.3 14.7 30.2 0.0 7.3
03-07-2020 185 35.1 15:10 21.0 5:48 28.1 43.2 25.8 11.8 2.3 248.5 30.5 0.0 8.5
02-07-2020 184 35.4 15:22 21.0 5:26 28.3 50.4 29.3 12.2 2.4 255.9 30.0 0.0 8.6
01-07-2020 183 36.7 16:14 19.8 5:18 28.1 62.1 34.9 11.0 2.1 274.9 30.4 0.0 8.4
30-06-2020 182 37.9 14:56 21.3 5:36 30.4 47.2 27.0 15.8 2.2 268.6 28.8 0.0 8.5
29-06-2020 181 39.1 15:00 22.5 5:30 30.9 38.3 24.7 15.2 1.6 98.5 29.9 0.0 8.0
28-06-2020 180 36.9 14:36 20.4 4:58 29.3 54.9 32.0 15.2 1.6 273.8 30.1 0.0 7.6
27-06-2020 179 33.9 15:30 17.6 5:42 26.2 61.6 36.9 15.9 1.8 268.9 29.9 0.0 7.4
26-06-2020 178 31.3 14:18 19.0 5:16 25.2 78.5 49.7 23.5 3.0 262.8 28.5 0.0 7.7
25-06-2020 177 35.6 15:10 20.4 5:22 27.9 58.9 39.4 19.3 2.4 270.6 29.7 0.0 8.4
24-06-2020 176 38.2 16:16 21.7 4:46 30.2 47.1 27.3 14.9 1.8 299.4 27.2 0.0 7.8
23-06-2020 175 39.8 14:44 20.7 4:28 30.9 44.5 24.8 12.4 1.5 121.5 29.2 0.0 7.8
22-06-2020 174 38.8 16:02 20.8 3:24 30.2 35.6 21.9 12.0 1.4 68.7 30.3 0.0 7.7
21-06-2020 173 36.6 15:32 19.6 4:56 28.7 44.7 23.3 8.9 1.3 252.5 30.8 0.0 7.2
20-06-2020 172 34.7 15:56 17.4 5:02 26.7 55.3 31.6 15.5 1.6 270.2 30.3 0.0 7.3
19-06-2020 171 31.3 15:30 16.2 4:20 23.9 55.2 36.0 18.4 2.1 273.5 30.7 0.0 7.4
18-06-2020 170 31.2 15:38 15.7 5:10 24.0 65.1 37.8 18.8 2.2 270.9 30.5 0.0 7.4
17-06-2020 169 29.4 15:22 17.8 5:06 23.5 69.3 43.7 21.5 3.2 254.1 30.1 0.0 7.8
16-06-2020 168 29.4 15:36 17.2 5:30 23.0 58.0 41.4 27.4 3.2 267.3 27.9 0.0 7.5
15-06-2020 167 29.6 14:50 14.6 5:36 22.1 65.9 41.3 20.2 2.3 271.8 30.7 0.0 7.2
14-06-2020 166 28.6 15:44 15.1 5:14 21.6 61.6 40.0 20.2 2.3 270.6 30.4 0.0 7.1
13-06-2020 165 25.5 16:02 13.0 5:38 19.0 78.6 49.4 28.5 2.4 265.5 28.2 0.0 6.0
12-06-2020 164 22.5 15:58 12.8 6:30 17.8 89.9 54.5 30.1 4.8 249.2 24.6 0.0 5.9
11-06-2020 163 25.8 14:10 15.4 5:22 20.5 69.7 45.2 27.5 4.9 262.0 29.8 0.0 7.6
10-06-2020 162 29.8 15:32 15.2 5:28 22.5 64.6 36.9 16.6 2.5 275.5 27.9 0.0 7.2
09-06-2020 161 28.1 15:48 12.8 4:58 20.9 71.9 43.2 21.3 2.1 270.0 29.4 0.0 6.5
08-06-2020 160 25.3 16:18 16.3 5:08 20.3 77.8 47.6 16.4 3.2 262.5 28.6 0.0 6.9
07-06-2020 159 26.4 13:44 17.2 4:36 21.3 69.8 50.0 30.9 4.7 255.3 24.8 0.0 7.2
06-06-2020 158 29.5 16:32 15.4 5:04 22.5 80.2 51.1 27.3 3.0 268.5 30.0 0.0 7.3
05-06-2020 157 27.8 14:40 15.7 4:34 21.6 88.2 57.2 33.1 2.9 260.9 26.9 0.0 6.3
04-06-2020 156 24.2 13:14 17.1 23:42 20.0 80.6 62.8 42.5 5.0 256.1 16.7 2.0 5.3
03-06-2020 155 29.3 15:40 16.6 4:54 23.0 71.4 48.2 26.4 3.3 264.0 29.5 0.0 7.5
02-06-2020 154 31.8 14:32 15.8 5:10 24.1 78.0 46.2 19.7 1.9 272.8 27.4 0.0 6.7
01-06-2020 153 30.3 15:46 14.4 3:34 22.8 78.2 46.8 22.0 1.7 253.1 26.8 0.0 6.2
31-05-2020 152 30.5 12:26 16.0 23:00 22.0 77.0 42.0 15.4 2.0 233.1 17.8 0.0 5.8
30-05-2020 151 34.5 15:56 17.6 5:34 26.0 63.2 30.2 11.4 1.3 36.0 29.9 0.0 6.9
29-05-2020 150 32.9 15:26 16.8 4:34 25.2 53.8 30.2 16.6 1.1 28.6 29.7 0.0 6.3
28-05-2020 149 31.9 14:02 16.8 4:20 24.6 63.7 34.1 18.6 1.8 122.0 29.2 0.0 7.0
27-05-2020 148 30.5 12:04 17.9 5:24 24.1 68.0 40.1 22.3 2.6 125.6 21.4 0.2 6.5
26-05-2020 147 34.1 15:16 18.5 5:36 26.2 57.6 31.4 13.7 1.4 169.8 29.3 0.0 6.9
25-05-2020 146 34.6 15:30 18.5 4:06 26.1 56.1 33.5 16.5 1.1 53.5 29.3 0.0 6.5
24-05-2020 145 34.6 16:22 19.9 5:20 27.6 57.3 34.6 19.1 1.1 206.4 28.7 0.0 6.4
23-05-2020 144 34.9 15:16 19.1 4:38 27.3 56.4 36.4 21.0 1.5 144.1 28.0 0.0 6.9
22-05-2020 143 34.5 13:38 17.6 5:10 26.9 63.4 38.0 19.5 1.4 98.0 29.1 0.0 6.8
21-05-2020 142 33.3 14:00 16.7 5:06 26.0 68.2 38.9 21.1 1.7 121.1 29.4 0.0 6.9
20-05-2020 141 31.6 15:06 15.7 4:44 24.3 70.7 40.4 16.1 1.6 204.7 29.8 0.0 6.7
19-05-2020 140 30.6 16:02 14.6 4:56 22.8 73.6 43.7 17.3 1.6 136.1 29.6 0.0 6.5
18-05-2020 139 27.6 15:20 11.5 5:16 20.0 93.6 55.8 27.1 1.6 167.9 29.5 0.0 5.8
17-05-2020 138 24.5 14:36 13.1 2:50 17.2 94.8 70.5 38.2 1.3 84.5 26.9 0.0 4.8
16-05-2020 137 22.9 16:22 11.7 5:24 16.3 97.1 71.4 37.7 1.2 253.3 22.5 0.4 4.1
15-05-2020 136 20.9 15:44 8.3 4:46 13.8 97.7 77.8 43.2 1.0 100.6 17.6 0.2 3.2
14-05-2020 135 17.5 15:50 10.4 00:12 12.6 96.1 85.0 61.0 1.1 326.1 14.2 4.0 2.4
13-05-2020 134 20.9 15:50 10.4 5:00 14.8 94.2 70.5 44.6 1.7 287.6 22.7 1.0 4.0
12-05-2020 133 16.1 14:38 10.4 21:50 12.2 99.1 90.2 67.4 1.4 135.2 7.5 23.8 1.6
11-05-2020 132 21.6 16:02 12.8 00:28 16.2 86.3 67.7 48.8 3.3 254.6 18.7 0.0 4.2
10-05-2020 131 18.7 15:22 11.5 4:46 14.2 93.6 77.8 53.1 4.2 242.1 17.9 6.4 3.6
09-05-2020 130 22.7 15:16 14.1 23:58 17.7 86.1 64.4 40.0 2.9 277.6 16.3 0.0 4.2
08-05-2020 129 29.4 15:12 15.4 5:30 22.1 70.0 45.5 28.4 2.3 280.0 27.8 0.0 6.5
07-05-2020 128 30.8 13:30 17.6 23:56 23.4 63.8 40.8 23.1 2.0 142.3 22.1 0.0 6.1
06-05-2020 127 30.0 15:56 14.3 3:12 21.8 72.5 45.9 23.7 1.0 271.1 28.2 0.0 5.5
05-05-2020 126 28.0 16:38 14.3 4:08 20.4 93.8 58.3 26.4 1.7 267.4 26.2 0.0 5.5
04-05-2020 125 34.1 12:12 17.6 23:58 24.5 70.1 42.5 17.9 2.8 254.0 24.5 0.0 7.9
03-05-2020 124 34.3 15:50 15.5 5:58 24.6 60.0 38.9 18.8 1.5 101.3 28.6 0.0 6.7
02-05-2020 123 30.0 15:32 14.0 5:42 22.0 90.6 52.9 21.0 1.4 135.6 28.4 0.0 5.8
01-05-2020 122 25.7 15:34 12.4 5:52 19.2 90.9 63.5 41.3 1.6 250.1 27.1 0.0 5.0
30-04-2020 121 21.4 15:14 10.8 5:02 16.2 89.0 66.4 48.1 2.3 260.9 17.1 0.0 3.6
29-04-2020 120 21.5 15:14 10.5 5:56 16.0 90.9 62.6 34.8 2.3 247.7 27.7 0.0 4.9
28-04-2020 119 19.8 14:18 11.3 1:24 14.8 99.3 74.8 47.4 1.9 256.6 19.4 1.2 3.5
27-04-2020 118 17.6 12:02 10.8 13:52 12.9 98.3 82.0 56.8 1.5 274.1 14.8 3.4 2.6
26-04-2020 117 18.6 14:52 12.7 8:24 14.2 97.9 85.0 65.3 2.5 252.4 11.1 0.2 2.3
25-04-2020 116 17.8 16:36 12.4 5:10 14.6 97.9 86.1 68.9 2.2 272.5 10.2 7.6 2.1
24-04-2020 115 26.1 14:38 11.1 5:18 18.8 87.5 56.4 29.2 1.4 117.9 23.0 0.0 4.6
23-04-2020 114 24.9 14:20 11.1 4:14 17.8 89.0 57.6 31.5 1.4 102.3 24.0 0.0 4.5
22-04-2020 113 20.6 16:18 11.3 5:30 15.3 90.5 71.0 49.2 1.9 266.4 24.6 0.0 4.0
21-04-2020 112 16.1 14:58 8.3 5:16 11.4 97.2 82.9 58.1 2.2 264.0 13.4 11.0 2.4
20-04-2020 111 17.4 16:34 9.3 23:14 13.1 93.7 71.9 47.6 3.6 259.9 18.1 1.8 3.4
19-04-2020 110 21.9 13:40 11.3 --:-- 16.0 95.2 72.2 41.4 2.4 266.4 17.7 7.2 3.8
18-04-2020 109 24.5 14:30 12.1 5:50 18.2 92.6 66.6 40.4 1.4 242.3 23.5 0.0 4.3
17-04-2020 108 21.5 16:00 11.7 3:46 15.8 94.4 74.4 51.0 1.3 249.4 18.2 0.0 3.2
16-04-2020 107 24.0 16:02 11.0 4:00 17.1 88.6 61.4 28.1 1.9 102.8 19.8 0.0 4.3
15-04-2020 106 19.8 16:12 11.1 6:02 15.1 99.9 76.5 48.3 2.0 221.7 15.9 4.8 3.1
14-04-2020 105 22.1 15:26 11.2 1:52 16.0 97.1 70.6 38.2 0.9 119.7 19.9 0.0 3.4
13-04-2020 104 21.5 14:40 12.3 21:36 15.1 97.2 78.2 47.3 1.6 287.3 19.1 2.2 3.4
12-04-2020 103 22.7 15:02 11.5 3:52 16.3 87.9 55.4 27.2 1.2 132.4 19.7 0.0 3.7
11-04-2020 102 23.6 16:00 11.5 6:00 17.2 92.9 54.0 28.3 1.3 103.0 21.7 0.0 4.0
10-04-2020 101 19.3 14:34 11.8 1:46 14.7 99.9 85.3 58.1 0.6 49.9 13.5 4.6 2.3
09-04-2020 100 22.3 10:46 11.3 20:54 16.0 99.9 72.3 33.5 1.2 255.4 11.7 19.6 2.7
08-04-2020 99 25.3 14:54 12.4 5:48 18.5 90.6 63.5 37.6 1.2 46.3 23.1 0.0 4.1
07-04-2020 98 23.2 14:42 12.4 5:34 17.6 97.1 71.6 48.5 1.4 172.7 21.5 0.0 3.7
06-04-2020 97 21.5 14:36 10.9 3:54 15.8 88.3 71.9 49.2 1.5 184.0 19.4 0.0 3.4
05-04-2020 96 22.5 14:30 9.1 5:36 15.7 80.8 60.6 39.6 1.4 38.2 22.5 0.0 3.8
04-04-2020 95 21.8 12:50 7.1 4:32 14.3 89.2 58.3 27.7 1.4 133.2 19.1 0.0 3.6
03-04-2020 94 19.7 14:48 7.6 6:04 13.1 99.5 68.5 29.1 1.1 73.4 22.5 0.0 3.4
02-04-2020 93 11.7 14:52 6.8 00:46 8.8 99.2 87.9 72.4 1.5 202.7 8.2 5.8 1.4
01-04-2020 92 16.0 14:56 8.0 23:32 11.4 100.0 81.7 51.1 1.9 273.3 12.7 3.8 2.3
31-03-2020 91 17.0 14:24 8.7 --:-- 11.7 100.0 88.6 52.3 1.2 69.2 7.6 9.4 1.7
30-03-2020 90 18.3 14:20 8.3 6:28 12.1 99.8 77.8 49.7 1.1 259.8 12.8 14.0 2.2
29-03-2020 89 19.4 15:56 7.2 5:44 13.3 84.7 55.5 32.4 1.4 228.5 22.1 0.0 3.5
28-03-2020 88 18.6 14:54 6.0 6:44 11.9 96.8 63.1 31.5 1.0 69.8 23.4 0.0 3.2
27-03-2020 87 16.8 15:34 8.0 23:58 12.1 91.8 67.0 40.4 2.5 300.0 16.7 0.2 3.1
26-03-2020 86 19.2 14:58 10.7 4:28 14.1 97.3 65.1 31.4 3.9 252.4 16.8 0.0 3.9
25-03-2020 85 18.2 15:48 8.7 6:38 13.2 79.0 58.2 34.4 2.0 284.6 22.6 0.0 3.7
24-03-2020 84 18.3 13:24 8.4 2:08 12.7 94.9 66.1 44.4 1.7 84.2 15.4 0.0 2.7
23-03-2020 83 18.0 13:56 6.1 6:14 10.8 99.8 81.2 44.0 1.4 98.0 14.1 7.0 2.4
22-03-2020 82 14.3 15:56 6.2 3:18 9.2 100.0 86.2 57.2 1.0 103.8 11.8 1.8 1.8
21-03-2020 81 15.6 16:00 7.4 6:58 10.6 100.0 79.8 50.5 1.3 9.2 13.3 7.2 2.1
20-03-2020 80 19.7 14:04 7.8 6:40 13.6 78.6 58.3 38.5 1.1 91.7 16.1 0.0 2.7
19-03-2020 79 21.6 13:42 8.8 5:56 14.5 78.7 57.5 37.9 1.3 116.1 15.7 0.0 3.0
18-03-2020 78 21.4 15:02 13.5 00:06 16.5 72.2 49.0 36.7 4.3 111.7 19.7 0.0 4.8
17-03-2020 77 18.3 13:08 5.1 4:22 11.5 83.7 61.9 32.5 1.5 81.6 16.3 0.0 2.8
16-03-2020 76 14.9 00:06 4.9 6:00 8.7 98.5 71.0 46.4 3.2 252.1 13.6 4.6 2.5
15-03-2020 75 20.0 13:48 10.7 4:30 15.6 86.2 63.5 41.3 1.7 192.1 13.6 0.0 2.8
14-03-2020 74 22.7 15:52 10.5 6:44 16.4 86.3 64.7 38.7 1.1 236.5 18.8 0.0 3.1
13-03-2020 73 23.5 15:40 12.4 5:52 17.1 80.8 57.6 26.9 1.5 252.5 16.9 0.0 3.5
12-03-2020 72 27.5 15:32 13.9 6:42 19.9 66.1 42.8 25.3 1.8 192.7 18.9 0.0 4.4
11-03-2020 71 30.1 15:42 9.9 4:04 19.4 67.2 43.0 20.7 1.8 123.0 20.1 0.0 4.9
10-03-2020 70 24.7 16:50 6.4 5:32 16.1 74.1 45.9 27.4 1.4 106.1 19.4 0.0 3.6
09-03-2020 69 20.7 15:50 7.4 6:14 14.2 72.4 48.2 26.5 1.5 242.1 19.7 0.0 3.3
08-03-2020 68 21.1 15:36 2.7 5:20 12.5 85.5 48.8 19.0 1.6 185.5 20.5 0.0 3.4
07-03-2020 67 16.4 14:30 4.5 5:34 10.3 71.9 50.8 32.3 1.5 112.4 15.7 0.0 2.6
06-03-2020 66 16.0 15:04 6.9 6:22 10.7 79.5 59.8 35.5 4.0 248.0 14.8 0.0 3.4
05-03-2020 65 17.0 12:04 8.4 7:14 12.4 90.5 71.2 58.2 3.1 250.1 10.7 0.0 2.3
04-03-2020 64 19.2 15:46 11.1 23:58 14.5 94.9 71.2 46.2 2.2 259.9 10.7 0.0 2.4